createdAt,value
2018-12-15T00:00:19.498Z,23.07
2018-12-15T00:02:56.667Z,22.17
2018-12-15T00:05:25.763Z,22.87
2018-12-15T00:08:08.251Z,22.77
2018-12-15T00:10:40.855Z,22.27
2018-12-15T00:13:13.853Z,22.97
2018-12-15T00:15:50.419Z,23.40
2018-12-15T00:18:26.531Z,21.43
2018-12-15T00:20:59.773Z,21.60
2018-12-15T00:23:36.571Z,20.67
2018-12-15T00:26:09.417Z,21.53
2018-12-15T00:28:46.186Z,18.63
2018-12-15T00:31:15.737Z,18.50
2018-12-15T00:33:48.014Z,23.47
2018-12-15T00:36:21.260Z,22.53
2018-12-15T00:38:58.811Z,24.83
2018-12-15T00:41:31.788Z,21.90
2018-12-15T00:44:04.613Z,23.77
2018-12-15T00:46:37.475Z,19.97
2018-12-15T00:49:08.349Z,20.60
2018-12-15T00:51:41.285Z,23.97
2018-12-15T00:56:39.432Z,23.20
2018-12-15T00:59:08.598Z,22.03
2018-12-15T01:01:41.706Z,21.93
2018-12-15T01:04:14.367Z,22.90
2018-12-15T01:06:47.476Z,23.80
2018-12-15T01:09:24.526Z,20.77
2018-12-15T01:12:01.378Z,22.83
2018-12-15T01:17:57.937Z,22.70
2018-12-15T01:20:30.683Z,22.77
2018-12-15T01:23:03.642Z,22.57
2018-12-15T01:25:40.181Z,22.00
2018-12-15T01:28:17.054Z,23.73
2018-12-15T01:30:50.057Z,25.17
2018-12-15T01:33:27.334Z,23.60
2018-12-15T01:36:03.930Z,21.83
2018-12-15T01:38:40.752Z,22.87
2018-12-15T01:41:13.526Z,26.77
2018-12-15T01:43:47.577Z,23.77
2018-12-15T01:46:20.353Z,22.37
2018-12-15T01:48:53.165Z,21.10
2018-12-15T01:51:25.945Z,22.90
2018-12-15T01:53:59.130Z,22.90
2018-12-15T01:56:36.195Z,22.63
2018-12-15T02:04:10.246Z,23.00
2018-12-15T02:06:46.393Z,23.40
2018-12-15T02:09:23.390Z,22.27
2018-12-15T02:12:00.210Z,21.57
2018-12-15T02:14:33.279Z,24.00
2018-12-15T02:17:05.454Z,20.73
2018-12-15T02:19:38.582Z,23.50
2018-12-15T02:22:11.328Z,22.20
2018-12-15T02:24:43.667Z,20.20
2018-12-15T02:27:16.351Z,23.87
2018-12-15T02:29:49.180Z,23.87
2018-12-15T02:32:26.255Z,23.00
2018-12-15T02:34:57.054Z,21.77
2018-12-15T02:37:34.071Z,21.40
2018-12-15T02:40:07.733Z,20.63
2018-12-15T02:42:44.337Z,22.63
2018-12-15T02:45:17.370Z,22.40
2018-12-15T02:47:50.253Z,22.73
2018-12-15T02:50:23.059Z,22.80
2018-12-15T02:52:59.954Z,21.20
2018-12-15T02:55:36.913Z,22.90
2018-12-15T02:58:13.804Z,25.33
2018-12-15T03:00:46.831Z,25.43
2018-12-15T03:03:19.797Z,23.40
2018-12-15T03:05:56.073Z,24.63
2018-12-15T03:08:32.861Z,22.57
2018-12-15T03:11:05.662Z,23.53
2018-12-15T03:13:36.530Z,22.90
2018-12-15T03:16:13.437Z,25.47
2018-12-15T03:18:50.147Z,24.57
2018-12-15T03:21:23.032Z,23.40
2018-12-15T03:24:00.063Z,22.90
2018-12-15T03:26:37.150Z,23.83
2018-12-15T03:29:08.078Z,23.80
2018-12-15T03:31:41.066Z,22.73
2018-12-15T03:34:17.289Z,20.30
2018-12-15T03:36:54.202Z,26.13
2018-12-15T03:39:26.964Z,24.50
2018-12-15T03:41:59.932Z,21.10
2018-12-15T03:44:32.734Z,25.60
2018-12-15T03:47:08.884Z,23.20
2018-12-15T03:49:45.807Z,21.23
2018-12-15T03:52:18.754Z,22.03
2018-12-15T03:54:51.554Z,22.00
2018-12-15T03:57:24.589Z,23.47
2018-12-15T04:00:01.228Z,24.80
2018-12-15T04:02:32.569Z,21.87
2018-12-15T04:05:08.946Z,22.63
2018-12-15T04:07:42.010Z,21.33
2018-12-15T04:10:19.162Z,22.70
2018-12-15T04:12:49.669Z,20.07
2018-12-15T04:15:22.753Z,22.57
2018-12-15T04:18:03.696Z,23.83
2018-12-15T04:20:33.730Z,23.27
2018-12-15T04:23:09.934Z,23.03
2018-12-15T04:25:42.821Z,21.13
2018-12-15T04:28:15.835Z,23.93
2018-12-15T04:30:48.778Z,21.87
2018-12-15T04:33:25.790Z,24.40
2018-12-15T04:35:56.339Z,22.03
2018-12-15T04:38:33.483Z,24.00
2018-12-15T04:41:10.253Z,22.50
2018-12-15T04:43:47.306Z,22.80
2018-12-15T04:46:19.979Z,22.67
2018-12-15T04:48:52.242Z,22.60
2018-12-15T04:51:24.954Z,24.93
2018-12-15T04:53:55.895Z,22.83
2018-12-15T04:56:32.742Z,24.80
2018-12-15T04:59:09.641Z,22.33
2018-12-15T05:01:40.430Z,21.00
2018-12-15T05:04:17.468Z,23.80
2018-12-15T05:06:54.414Z,23.83
2018-12-15T05:09:27.261Z,23.20
2018-12-15T05:12:00.113Z,20.80
2018-12-15T05:14:33.168Z,20.80
2018-12-15T05:17:10.159Z,21.20
2018-12-15T05:19:46.969Z,22.57
2018-12-15T05:22:23.998Z,23.77
2018-12-15T05:24:56.903Z,21.50
2018-12-15T05:27:33.955Z,21.80
2018-12-15T05:30:11.111Z,21.33
2018-12-15T05:32:44.476Z,20.47
2018-12-15T05:35:21.370Z,21.20
2018-12-15T05:37:57.608Z,23.50
2018-12-15T05:40:30.431Z,20.40
2018-12-15T05:43:01.293Z,21.27
2018-12-15T05:45:34.167Z,19.00
2018-12-15T05:48:11.650Z,23.20
2018-12-15T05:50:44.285Z,22.00
2018-12-15T05:53:16.469Z,18.60
2018-12-15T05:55:47.402Z,22.73
2018-12-15T05:58:24.247Z,21.00
2018-12-15T06:01:00.451Z,20.70
2018-12-15T06:03:33.579Z,21.53
2018-12-15T06:06:10.565Z,20.73
2018-12-15T06:08:41.567Z,20.73
2018-12-15T06:11:14.443Z,21.20
2018-12-15T06:23:46.019Z,21.20
2018-12-15T06:26:22.711Z,22.90
2018-12-15T06:28:59.319Z,21.07
2018-12-15T06:31:32.434Z,20.47
2018-12-15T06:34:09.475Z,22.00
2018-12-15T06:37:26.708Z,24.10
2018-12-15T06:39:58.975Z,22.17
2018-12-15T06:42:31.228Z,21.77
2018-12-15T06:45:03.999Z,22.60
2018-12-15T06:47:41.067Z,22.40
2018-12-15T06:50:13.663Z,20.57
2018-12-15T06:52:46.838Z,20.30
2018-12-15T06:55:16.151Z,22.87
2018-12-15T06:57:49.217Z,19.50
2018-12-15T07:00:26.059Z,20.53
2018-12-15T07:02:57.080Z,20.80
2018-12-15T07:05:29.830Z,19.20
2018-12-15T07:08:06.694Z,20.53
2018-12-15T07:10:39.683Z,20.90
2018-12-15T07:13:12.595Z,21.57
2018-12-15T07:15:46.706Z,20.60
2018-12-15T07:18:19.923Z,20.83
2018-12-15T07:20:53.002Z,20.40
2018-12-15T07:26:01.599Z,19.00
2018-12-15T07:28:34.844Z,20.43
2018-12-15T07:31:05.828Z,20.87
2018-12-15T07:33:42.633Z,19.57
2018-12-15T07:36:15.555Z,20.13
2018-12-15T07:38:48.399Z,18.27
2018-12-15T07:41:21.479Z,19.67
2018-12-15T07:43:54.414Z,17.40
2018-12-15T07:46:27.343Z,19.23
2018-12-15T07:49:00.211Z,17.97
2018-12-15T07:51:37.207Z,18.47
2018-12-15T07:54:10.023Z,19.03
2018-12-15T07:56:43.098Z,20.33
2018-12-15T07:59:19.951Z,19.13
2018-12-15T08:01:53.016Z,21.50
2018-12-15T08:04:26.282Z,19.00
2018-12-15T08:06:58.847Z,19.40
2018-12-15T08:09:29.543Z,18.40
2018-12-15T08:12:11.434Z,18.97
2018-12-15T08:14:47.682Z,20.53
2018-12-15T08:17:24.898Z,16.90
2018-12-15T08:20:01.675Z,20.90
2018-12-15T08:22:34.627Z,19.73
2018-12-15T08:25:08.354Z,19.83
2018-12-15T08:27:40.664Z,20.17
2018-12-15T08:30:17.759Z,19.30
2018-12-15T08:32:48.699Z,22.57
2018-12-15T08:35:25.913Z,20.20
2018-12-15T08:37:58.574Z,21.87
2018-12-15T08:40:35.710Z,24.87
2018-12-15T08:43:08.571Z,23.77
2018-12-15T08:45:45.649Z,23.00
2018-12-15T08:48:22.482Z,22.10
2018-12-15T08:50:51.895Z,19.90
2018-12-15T08:53:24.180Z,25.40
2018-12-15T08:55:55.339Z,23.27
2018-12-15T08:58:32.006Z,23.47
2018-12-15T09:01:04.903Z,24.20
2018-12-15T09:03:37.760Z,21.77
2018-12-15T09:06:14.779Z,20.40
2018-12-15T09:08:47.718Z,22.03
2018-12-15T09:11:20.855Z,23.33
2018-12-15T09:13:57.483Z,24.47
2018-12-15T09:16:33.755Z,23.10
2018-12-15T09:19:11.374Z,19.80
2018-12-15T09:21:48.812Z,23.97
2018-12-15T09:24:21.898Z,22.07
2018-12-15T09:26:58.587Z,21.40
2018-12-15T09:29:35.411Z,22.77
2018-12-15T09:32:12.667Z,21.50
2018-12-15T09:34:50.531Z,23.33
2018-12-15T09:37:23.331Z,22.50
2018-12-15T09:40:00.162Z,22.13
2018-12-15T09:42:33.118Z,21.83
2018-12-15T09:45:06.017Z,22.37
2018-12-15T09:47:42.623Z,21.30
2018-12-15T09:50:15.536Z,18.43
2018-12-15T09:52:48.751Z,21.00
2018-12-15T09:55:21.770Z,18.73
2018-12-15T09:57:54.826Z,21.30
2018-12-15T10:00:27.911Z,18.77
2018-12-15T10:03:00.787Z,19.87
2018-12-15T10:05:33.691Z,20.57
2018-12-15T10:08:10.495Z,19.30
2018-12-15T10:10:43.566Z,20.07
2018-12-15T10:13:20.537Z,17.10
2018-12-15T10:15:53.452Z,19.17
2018-12-15T10:18:25.694Z,19.60
2018-12-15T10:21:02.687Z,19.40
2018-12-15T10:23:35.527Z,18.50
2018-12-15T10:26:08.519Z,18.07
2018-12-15T10:28:45.346Z,21.10
2018-12-15T10:31:23.535Z,17.90
2018-12-15T10:33:59.965Z,16.30
2018-12-15T10:36:32.843Z,16.77
2018-12-15T10:39:10.318Z,19.20
2018-12-15T10:41:46.862Z,16.50
2018-12-15T10:44:19.460Z,18.23
2018-12-15T10:46:52.443Z,16.93
2018-12-15T10:49:30.664Z,16.20
2018-12-15T10:51:59.847Z,18.00
2018-12-15T10:54:37.535Z,16.90
2018-12-15T10:57:14.886Z,16.57
2018-12-15T10:59:47.819Z,18.40
2018-12-15T11:02:24.115Z,15.83
2018-12-15T11:04:57.058Z,16.33
2018-12-15T11:07:26.214Z,17.67
2018-12-15T11:10:02.587Z,16.07
2018-12-15T11:12:35.494Z,15.47
2018-12-15T11:15:12.562Z,18.60
2018-12-15T11:17:45.416Z,18.47
2018-12-15T11:20:21.555Z,15.67
2018-12-15T11:23:07.906Z,14.90
2018-12-15T11:25:44.559Z,12.37
2018-12-15T11:28:21.415Z,14.00
2018-12-15T11:30:54.258Z,14.00
2018-12-15T11:33:31.095Z,16.27
2018-12-15T11:36:03.859Z,13.40
2018-12-15T11:38:40.843Z,12.87
2018-12-15T11:41:13.691Z,13.27
2018-12-15T11:43:46.775Z,17.33
2018-12-15T11:46:19.384Z,14.90
2018-12-15T11:48:56.331Z,14.43
2018-12-15T11:52:04.341Z,13.63
2018-12-15T11:54:36.915Z,13.20
2018-12-15T11:57:09.599Z,15.87
2018-12-15T11:59:43.060Z,15.83
2018-12-15T12:02:19.426Z,14.90
2018-12-15T12:04:52.475Z,17.70
2018-12-15T12:07:25.422Z,13.60
2018-12-15T12:09:56.559Z,15.13
2018-12-15T12:12:30.220Z,13.50
2018-12-15T12:15:07.586Z,14.80
2018-12-15T12:17:44.153Z,13.17
2018-12-15T12:20:21.024Z,15.17
2018-12-15T12:22:58.159Z,12.23
2018-12-15T12:25:35.018Z,11.57
2018-12-15T12:28:11.971Z,12.67
2018-12-15T12:30:49.018Z,14.27
2018-12-15T12:33:21.714Z,12.37
2018-12-15T12:38:24.439Z,11.70
2018-12-15T12:40:57.482Z,15.47
2018-12-15T12:43:30.298Z,13.20
2018-12-15T12:46:03.296Z,13.93
2018-12-15T12:48:36.422Z,13.13
2018-12-15T12:51:09.443Z,15.17
2018-12-15T12:53:42.536Z,14.27
2018-12-15T12:56:13.681Z,14.57
2018-12-15T12:58:50.691Z,10.90
2018-12-15T13:01:26.969Z,14.43
2018-12-15T13:03:59.075Z,15.17
2018-12-15T13:06:32.289Z,14.97
2018-12-15T13:09:09.259Z,12.50
2018-12-15T13:11:46.203Z,14.93
2018-12-15T13:14:26.417Z,14.23
2018-12-15T13:16:58.935Z,14.27
2018-12-15T13:19:35.843Z,13.70
2018-12-15T13:22:08.964Z,13.67
2018-12-15T13:24:45.957Z,17.63
2018-12-15T13:27:15.235Z,14.43
2018-12-15T13:29:47.774Z,13.70
2018-12-15T13:32:20.655Z,15.70
2018-12-15T13:34:57.795Z,12.53
2018-12-15T13:37:34.734Z,15.53
2018-12-15T13:45:08.794Z,14.70
2018-12-15T13:47:41.643Z,16.47
2018-12-15T13:50:14.611Z,14.87
2018-12-15T13:52:51.702Z,17.20
2018-12-15T13:55:28.903Z,13.13
2018-12-15T13:58:05.832Z,14.70
2018-12-15T14:00:42.456Z,13.67
2018-12-15T14:03:15.375Z,14.00
2018-12-15T14:05:48.375Z,12.97
2018-12-15T14:08:21.587Z,15.33
2018-12-15T14:10:54.730Z,14.97
2018-12-15T14:13:27.660Z,13.90
2018-12-15T14:15:59.901Z,14.50
2018-12-15T14:18:32.851Z,14.57
2018-12-15T14:21:05.277Z,14.27
2018-12-15T14:23:41.815Z,14.93
2018-12-15T14:26:18.693Z,13.53
2018-12-15T14:28:55.847Z,13.03
2018-12-15T14:31:28.942Z,14.20
2018-12-15T14:34:01.474Z,13.80
2018-12-15T14:36:38.382Z,12.50
2018-12-15T14:39:15.175Z,11.63
2018-12-15T14:41:51.428Z,13.57
2018-12-15T14:44:24.447Z,14.97
2018-12-15T14:47:01.403Z,14.70
2018-12-15T14:49:38.533Z,13.23
2018-12-15T14:52:14.983Z,13.20
2018-12-15T14:54:51.870Z,13.87
2018-12-15T14:57:28.970Z,14.30
2018-12-15T15:00:01.363Z,14.03
2018-12-15T15:02:38.636Z,14.10
2018-12-15T15:05:11.840Z,14.53
2018-12-15T15:07:44.728Z,13.30
2018-12-15T15:10:15.235Z,13.80
2018-12-15T15:12:48.136Z,13.43
2018-12-15T15:15:21.212Z,14.77
2018-12-15T15:17:53.915Z,12.10
2018-12-15T15:20:29.811Z,15.90
2018-12-15T15:23:04.263Z,13.13
2018-12-15T15:25:37.451Z,14.77
2018-12-15T15:28:10.218Z,13.83
2018-12-15T15:30:43.111Z,14.10
2018-12-15T15:33:16.704Z,14.30
2018-12-15T15:35:50.855Z,14.40
2018-12-15T15:38:23.562Z,15.00
2018-12-15T15:41:01.186Z,15.10
2018-12-15T15:43:34.608Z,15.50
2018-12-15T15:46:07.488Z,15.10
2018-12-15T15:48:44.303Z,14.60
2018-12-15T15:51:17.123Z,15.13
2018-12-15T15:53:47.914Z,13.20
2018-12-15T15:56:25.100Z,13.43
2018-12-15T15:58:54.577Z,15.10
2018-12-15T16:01:34.963Z,14.70
2018-12-15T16:04:30.787Z,17.03
2018-12-15T16:07:04.173Z,14.10
2018-12-15T16:09:33.708Z,14.80
2018-12-15T16:12:05.224Z,14.43
2018-12-15T16:14:38.484Z,13.70
2018-12-15T16:17:07.883Z,14.27
2018-12-15T16:19:41.348Z,14.20
2018-12-15T16:22:18.658Z,15.13
2018-12-15T16:24:56.213Z,16.80
2018-12-15T16:27:27.055Z,15.23
2018-12-15T16:29:59.670Z,14.20
2018-12-15T16:32:36.591Z,15.97
2018-12-15T16:35:13.318Z,16.33
2018-12-15T16:37:46.169Z,13.70
2018-12-15T16:40:15.795Z,16.27
2018-12-15T16:42:52.808Z,14.50
2018-12-15T16:45:30.558Z,12.13
2018-12-15T16:48:07.555Z,13.43
2018-12-15T16:50:40.718Z,15.70
2018-12-15T16:53:18.294Z,14.70
2018-12-15T16:55:55.476Z,15.30
2018-12-15T16:58:24.983Z,14.20
2018-12-15T17:01:00.020Z,15.30
2018-12-15T17:03:32.680Z,15.33
2018-12-15T17:06:03.676Z,18.07
2018-12-15T17:08:40.867Z,13.90
2018-12-15T17:11:14.543Z,15.40
2018-12-15T17:13:52.513Z,17.50
2018-12-15T17:16:29.287Z,15.40
2018-12-15T17:19:06.255Z,15.27
2018-12-15T17:21:37.053Z,16.13
2018-12-15T17:24:13.760Z,15.70
2018-12-15T17:26:46.743Z,13.80
2018-12-15T17:29:19.669Z,18.73
2018-12-15T17:31:56.495Z,15.67
2018-12-15T17:34:33.229Z,15.20
2018-12-15T17:37:06.104Z,13.93
2018-12-15T17:39:42.911Z,13.23
2018-12-15T17:42:19.858Z,19.27
2018-12-15T17:44:56.892Z,15.80
2018-12-15T17:47:33.744Z,15.33
2018-12-15T17:50:07.630Z,15.23
2018-12-15T17:52:41.067Z,15.83
2018-12-15T17:55:12.720Z,17.10
2018-12-15T17:57:45.654Z,15.90
2018-12-15T18:00:22.372Z,18.23
2018-12-15T18:02:59.114Z,16.30
2018-12-15T18:05:35.863Z,15.70
2018-12-15T18:08:08.491Z,14.97
2018-12-15T18:10:38.091Z,16.70
2018-12-15T18:13:12.174Z,15.73
2018-12-15T18:15:43.406Z,18.27
2018-12-15T18:18:16.703Z,18.47
2018-12-15T18:20:50.313Z,14.30
2018-12-15T18:23:23.593Z,14.60
2018-12-15T18:26:00.247Z,16.37
2018-12-15T18:28:33.293Z,17.97
2018-12-15T18:31:11.203Z,16.60
2018-12-15T18:33:44.007Z,19.30
2018-12-15T18:36:17.334Z,18.17
2018-12-15T18:38:50.912Z,16.10
2018-12-15T18:41:24.071Z,15.97
2018-12-15T18:43:54.955Z,18.30
2018-12-15T18:46:27.735Z,17.80
2018-12-15T19:16:38.155Z,18.20
2018-12-15T19:19:11.100Z,21.30
2018-12-15T19:21:44.299Z,19.27
2018-12-15T19:24:17.317Z,18.50
2018-12-15T19:26:50.263Z,18.70
2018-12-15T19:29:27.219Z,17.47
2018-12-15T19:31:59.963Z,19.60
2018-12-15T19:34:36.925Z,19.03
2018-12-15T19:37:09.623Z,16.40
2018-12-15T19:39:42.663Z,20.00
2018-12-15T19:42:15.615Z,17.53
2018-12-15T19:44:52.635Z,20.27
2018-12-15T19:47:25.575Z,18.00
2018-12-15T19:49:58.829Z,18.13
2018-12-15T19:52:35.582Z,16.40
2018-12-15T19:55:08.704Z,19.00
2018-12-15T19:57:41.670Z,16.53
2018-12-15T20:00:18.739Z,17.03
2018-12-15T20:02:51.711Z,18.20
2018-12-15T20:05:22.611Z,16.20
2018-12-15T20:07:55.855Z,16.20
2018-12-15T20:10:28.867Z,18.63
2018-12-15T20:13:01.591Z,21.53
2018-12-15T20:15:34.800Z,16.07
2018-12-15T20:18:12.564Z,18.03
2018-12-15T20:20:45.479Z,19.37
2018-12-15T20:23:16.711Z,17.77
2018-12-15T20:25:53.807Z,17.80
2018-12-15T20:28:26.534Z,20.70
2018-12-15T20:30:59.576Z,19.00
2018-12-15T20:33:32.409Z,16.77
2018-12-15T20:36:05.295Z,19.53
2018-12-15T20:38:40.873Z,17.97
2018-12-15T20:41:14.312Z,17.40
2018-12-15T20:43:47.203Z,17.27
2018-12-15T20:46:20.279Z,15.23
2018-12-15T20:48:57.535Z,17.20
2018-12-15T20:51:30.672Z,17.13
2018-12-15T20:54:03.883Z,17.47
2018-12-15T20:56:38.950Z,19.90
2018-12-15T20:59:11.955Z,17.20
2018-12-15T21:01:43.059Z,15.40
2018-12-15T21:04:16.459Z,17.27
2018-12-15T21:06:49.630Z,18.00
2018-12-15T21:09:22.439Z,19.67
2018-12-15T21:11:53.556Z,16.93
2018-12-15T21:14:31.795Z,15.13
2018-12-15T21:17:08.498Z,13.93
2018-12-15T21:19:39.494Z,15.30
2018-12-15T21:22:16.533Z,16.30
2018-12-15T21:24:49.307Z,17.20
2018-12-15T21:27:22.371Z,17.60
2018-12-15T21:29:59.639Z,14.23
2018-12-15T21:32:36.294Z,16.77
2018-12-15T21:35:09.186Z,15.10
2018-12-15T21:37:42.320Z,15.10
2018-12-15T21:40:15.374Z,15.93
2018-12-15T21:42:48.597Z,15.03
2018-12-15T21:45:21.435Z,14.07
2018-12-15T21:47:57.531Z,13.80
2018-12-15T21:50:31.359Z,15.70
2018-12-15T21:53:04.270Z,15.47
2018-12-15T21:55:36.931Z,14.40
2018-12-15T21:58:10.578Z,16.80
2018-12-15T22:00:43.755Z,14.70
2018-12-15T22:03:16.416Z,14.90
2018-12-15T22:05:53.092Z,16.30
2018-12-15T22:08:26.279Z,12.27
2018-12-15T22:10:58.992Z,13.93
2018-12-15T22:13:30.063Z,12.63
2018-12-15T22:16:03.198Z,14.90
2018-12-15T22:18:35.870Z,12.63
2018-12-15T22:21:13.077Z,12.53
2018-12-15T22:23:46.002Z,18.60
2018-12-15T22:26:19.015Z,14.47
2018-12-15T22:28:52.078Z,12.97
2018-12-15T22:31:24.184Z,13.17
2018-12-15T22:33:57.286Z,15.30
2018-12-15T22:36:30.115Z,13.97
2018-12-15T22:39:03.635Z,15.23
2018-12-15T22:41:36.155Z,14.27
2018-12-15T22:44:09.207Z,14.97
2018-12-15T22:46:42.011Z,13.73
2018-12-15T22:49:14.901Z,18.30
2018-12-15T22:51:47.907Z,13.53
2018-12-15T22:54:24.142Z,12.13
2018-12-15T22:56:57.232Z,15.37
2018-12-15T22:59:30.131Z,16.23
2018-12-15T23:02:03.731Z,13.93
2018-12-15T23:04:40.321Z,13.20
2018-12-15T23:07:13.112Z,13.47
2018-12-15T23:09:46.253Z,15.47
2018-12-15T23:12:19.217Z,14.33
2018-12-15T23:14:52.153Z,14.10
2018-12-15T23:17:29.259Z,15.30
2018-12-15T23:20:07.732Z,12.80
2018-12-15T23:22:38.163Z,10.97
2018-12-15T23:25:15.001Z,13.50
2018-12-15T23:27:48.237Z,14.93
2018-12-15T23:30:19.158Z,15.47
2018-12-15T23:32:52.262Z,14.03
2018-12-15T23:35:29.291Z,12.80
2018-12-15T23:38:02.441Z,13.87
2018-12-15T23:40:35.352Z,15.83
2018-12-15T23:43:12.297Z,14.00
2018-12-15T23:45:45.172Z,15.10
2018-12-15T23:48:18.059Z,15.93
2018-12-15T23:50:50.735Z,13.83
2018-12-15T23:53:22.974Z,16.37
2018-12-15T23:55:55.998Z,14.27
2018-12-15T23:58:32.916Z,17.03
